sensor_id;sensor_type;location;lat;lon;timestamp;P1;durP1;ratioP1;P2;durP2;ratioP2
70997;SDS011;58663;52.040;4.634;2023-05-07T00:01:00;92.60;;;36.30;;
70997;SDS011;58663;52.040;4.634;2023-05-07T00:03:25;95.18;;;38.42;;
70997;SDS011;58663;52.040;4.634;2023-05-07T00:05:51;93.03;;;36.75;;
70997;SDS011;58663;52.040;4.634;2023-05-07T00:08:18;95.85;;;40.25;;
70997;SDS011;58663;52.040;4.634;2023-05-07T00:10:43;85.63;;;37.63;;
70997;SDS011;58663;52.040;4.634;2023-05-07T00:13:09;97.78;;;38.03;;
70997;SDS011;58663;52.040;4.634;2023-05-07T00:15:35;92.55;;;36.40;;
70997;SDS011;58663;52.040;4.634;2023-05-07T00:18:00;95.60;;;37.22;;
70997;SDS011;58663;52.040;4.634;2023-05-07T00:20:25;94.18;;;36.25;;
70997;SDS011;58663;52.040;4.634;2023-05-07T00:22:51;92.60;;;36.38;;
70997;SDS011;58663;52.040;4.634;2023-05-07T00:25:16;92.13;;;34.60;;
70997;SDS011;58663;52.040;4.634;2023-05-07T00:27:44;85.82;;;34.83;;
70997;SDS011;58663;52.040;4.634;2023-05-07T00:30:09;90.57;;;34.90;;
70997;SDS011;58663;52.040;4.634;2023-05-07T00:32:35;89.95;;;35.42;;
70997;SDS011;58663;52.040;4.634;2023-05-07T00:35:01;84.13;;;32.75;;
70997;SDS011;58663;52.040;4.634;2023-05-07T00:37:27;107.07;;;37.42;;
70997;SDS011;58663;52.040;4.634;2023-05-07T00:39:52;98.03;;;33.95;;
70997;SDS011;58663;52.040;4.634;2023-05-07T00:42:18;92.47;;;34.90;;
70997;SDS011;58663;52.040;4.634;2023-05-07T00:44:43;85.47;;;33.78;;
70997;SDS011;58663;52.040;4.634;2023-05-07T00:47:08;94.13;;;33.80;;
70997;SDS011;58663;52.040;4.634;2023-05-07T00:49:43;87.47;;;33.65;;
70997;SDS011;58663;52.040;4.634;2023-05-07T00:52:14;93.13;;;33.88;;
70997;SDS011;58663;52.040;4.634;2023-05-07T00:54:41;90.00;;;33.95;;
70997;SDS011;58663;52.040;4.634;2023-05-07T00:57:07;89.93;;;34.30;;
70997;SDS011;58663;52.040;4.634;2023-05-07T00:59:34;100.03;;;35.22;;
70997;SDS011;58663;52.040;4.634;2023-05-07T01:02:00;95.63;;;33.55;;
70997;SDS011;58663;52.040;4.634;2023-05-07T01:04:25;104.72;;;35.45;;
70997;SDS011;58663;52.040;4.634;2023-05-07T01:06:51;95.55;;;32.70;;
70997;SDS011;58663;52.040;4.634;2023-05-07T01:09:17;97.85;;;35.03;;
70997;SDS011;58663;52.040;4.634;2023-05-07T01:11:45;107.70;;;35.28;;
70997;SDS011;58663;52.040;4.634;2023-05-07T01:14:10;100.65;;;34.00;;
70997;SDS011;58663;52.040;4.634;2023-05-07T01:16:36;95.10;;;34.90;;
70997;SDS011;58663;52.040;4.634;2023-05-07T01:19:01;96.45;;;32.88;;
70997;SDS011;58663;52.040;4.634;2023-05-07T01:21:28;97.80;;;33.75;;
70997;SDS011;58663;52.040;4.634;2023-05-07T01:26:22;84.33;;;30.40;;
70997;SDS011;58663;52.040;4.634;2023-05-07T01:28:48;92.45;;;32.15;;
70997;SDS011;58663;52.040;4.634;2023-05-07T01:31:14;93.55;;;30.95;;
70997;SDS011;58663;52.040;4.634;2023-05-07T01:33:40;80.25;;;32.55;;
70997;SDS011;58663;52.040;4.634;2023-05-07T01:36:07;90.47;;;32.00;;
70997;SDS011;58663;52.040;4.634;2023-05-07T01:38:34;85.57;;;33.10;;
70997;SDS011;58663;52.040;4.634;2023-05-07T01:41:00;92.68;;;32.75;;
70997;SDS011;58663;52.040;4.634;2023-05-07T01:43:26;84.97;;;33.28;;
70997;SDS011;58663;52.040;4.634;2023-05-07T01:45:51;82.13;;;32.35;;
70997;SDS011;58663;52.040;4.634;2023-05-07T01:48:17;88.13;;;32.60;;
70997;SDS011;58663;52.040;4.634;2023-05-07T01:50:43;85.43;;;33.22;;
70997;SDS011;58663;52.040;4.634;2023-05-07T01:53:09;81.00;;;33.72;;
70997;SDS011;58663;52.040;4.634;2023-05-07T01:55:34;84.18;;;34.40;;
70997;SDS011;58663;52.040;4.634;2023-05-07T01:58:01;85.60;;;33.58;;
70997;SDS011;58663;52.040;4.634;2023-05-07T02:00:27;84.25;;;33.63;;
70997;SDS011;58663;52.040;4.634;2023-05-07T02:02:52;86.80;;;32.97;;
70997;SDS011;58663;52.040;4.634;2023-05-07T02:05:18;79.72;;;33.28;;
70997;SDS011;58663;52.040;4.634;2023-05-07T02:07:43;86.10;;;35.83;;
70997;SDS011;58663;52.040;4.634;2023-05-07T02:10:09;83.90;;;33.88;;
70997;SDS011;58663;52.040;4.634;2023-05-07T02:12:34;82.97;;;33.83;;
70997;SDS011;58663;52.040;4.634;2023-05-07T02:15:00;90.03;;;35.78;;
70997;SDS011;58663;52.040;4.634;2023-05-07T02:17:25;80.07;;;33.42;;
70997;SDS011;58663;52.040;4.634;2023-05-07T02:19:51;80.65;;;33.97;;
70997;SDS011;58663;52.040;4.634;2023-05-07T02:22:16;71.22;;;31.63;;
70997;SDS011;58663;52.040;4.634;2023-05-07T02:24:41;69.18;;;30.95;;
70997;SDS011;58663;52.040;4.634;2023-05-07T02:27:07;67.97;;;30.88;;
70997;SDS011;58663;52.040;4.634;2023-05-07T02:29:32;70.45;;;30.48;;
70997;SDS011;58663;52.040;4.634;2023-05-07T02:31:57;62.17;;;29.48;;
70997;SDS011;58663;52.040;4.634;2023-05-07T02:34:23;66.05;;;29.85;;
70997;SDS011;58663;52.040;4.634;2023-05-07T02:36:48;57.20;;;27.48;;
70997;SDS011;58663;52.040;4.634;2023-05-07T02:39:13;56.38;;;28.20;;
70997;SDS011;58663;52.040;4.634;2023-05-07T02:41:40;55.83;;;27.25;;
70997;SDS011;58663;52.040;4.634;2023-05-07T02:44:05;59.60;;;29.10;;
70997;SDS011;58663;52.040;4.634;2023-05-07T02:46:31;61.88;;;28.75;;
70997;SDS011;58663;52.040;4.634;2023-05-07T02:48:56;64.45;;;27.83;;
70997;SDS011;58663;52.040;4.634;2023-05-07T02:51:22;57.67;;;27.92;;
70997;SDS011;58663;52.040;4.634;2023-05-07T02:53:47;57.35;;;27.67;;
70997;SDS011;58663;52.040;4.634;2023-05-07T02:56:13;55.65;;;26.98;;
70997;SDS011;58663;52.040;4.634;2023-05-07T02:58:38;58.88;;;27.30;;
70997;SDS011;58663;52.040;4.634;2023-05-07T03:01:04;55.83;;;27.17;;
70997;SDS011;58663;52.040;4.634;2023-05-07T03:03:30;51.15;;;25.98;;
70997;SDS011;58663;52.040;4.634;2023-05-07T03:05:55;56.28;;;26.98;;
70997;SDS011;58663;52.040;4.634;2023-05-07T03:08:21;53.25;;;27.17;;
70997;SDS011;58663;52.040;4.634;2023-05-07T03:10:46;58.75;;;26.67;;
70997;SDS011;58663;52.040;4.634;2023-05-07T03:13:12;49.45;;;26.77;;
70997;SDS011;58663;52.040;4.634;2023-05-07T03:15:37;54.17;;;26.58;;
70997;SDS011;58663;52.040;4.634;2023-05-07T03:18:02;52.58;;;27.45;;
70997;SDS011;58663;52.040;4.634;2023-05-07T03:20:28;45.28;;;25.83;;
70997;SDS011;58663;52.040;4.634;2023-05-07T03:22:53;52.85;;;26.90;;
70997;SDS011;58663;52.040;4.634;2023-05-07T03:25:18;49.50;;;27.10;;
70997;SDS011;58663;52.040;4.634;2023-05-07T03:27:44;55.05;;;27.52;;
70997;SDS011;58663;52.040;4.634;2023-05-07T03:30:09;53.60;;;27.35;;
70997;SDS011;58663;52.040;4.634;2023-05-07T03:32:35;52.80;;;25.60;;
70997;SDS011;58663;52.040;4.634;2023-05-07T03:35:01;48.13;;;26.70;;
70997;SDS011;58663;52.040;4.634;2023-05-07T03:37:27;52.38;;;27.00;;
70997;SDS011;58663;52.040;4.634;2023-05-07T03:39:52;54.50;;;26.63;;
70997;SDS011;58663;52.040;4.634;2023-05-07T03:42:17;54.13;;;26.30;;
70997;SDS011;58663;52.040;4.634;2023-05-07T03:44:43;54.83;;;27.55;;
70997;SDS011;58663;52.040;4.634;2023-05-07T03:47:08;48.55;;;25.50;;
70997;SDS011;58663;52.040;4.634;2023-05-07T03:49:35;48.58;;;26.20;;
70997;SDS011;58663;52.040;4.634;2023-05-07T03:52:00;47.00;;;24.85;;
70997;SDS011;58663;52.040;4.634;2023-05-07T03:54:26;48.20;;;24.70;;
70997;SDS011;58663;52.040;4.634;2023-05-07T03:56:51;56.10;;;25.88;;
70997;SDS011;58663;52.040;4.634;2023-05-07T03:59:16;52.05;;;25.73;;
70997;SDS011;58663;52.040;4.634;2023-05-07T04:01:42;48.67;;;25.17;;
70997;SDS011;58663;52.040;4.634;2023-05-07T04:04:07;60.40;;;25.45;;
70997;SDS011;58663;52.040;4.634;2023-05-07T04:06:33;50.42;;;25.48;;
70997;SDS011;58663;52.040;4.634;2023-05-07T04:08:58;54.10;;;26.08;;
70997;SDS011;58663;52.040;4.634;2023-05-07T04:11:23;46.60;;;24.55;;
70997;SDS011;58663;52.040;4.634;2023-05-07T04:13:49;49.60;;;24.90;;
70997;SDS011;58663;52.040;4.634;2023-05-07T04:16:15;50.28;;;26.30;;
70997;SDS011;58663;52.040;4.634;2023-05-07T04:18:40;54.92;;;26.23;;
70997;SDS011;58663;52.040;4.634;2023-05-07T04:21:06;52.58;;;26.70;;
70997;SDS011;58663;52.040;4.634;2023-05-07T04:23:39;50.35;;;25.15;;
70997;SDS011;58663;52.040;4.634;2023-05-07T04:26:04;55.60;;;27.90;;
70997;SDS011;58663;52.040;4.634;2023-05-07T04:28:29;58.08;;;26.42;;
70997;SDS011;58663;52.040;4.634;2023-05-07T04:30:55;53.03;;;27.13;;
70997;SDS011;58663;52.040;4.634;2023-05-07T04:33:20;56.42;;;25.38;;
70997;SDS011;58663;52.040;4.634;2023-05-07T04:35:45;54.40;;;26.73;;
70997;SDS011;58663;52.040;4.634;2023-05-07T04:38:11;49.60;;;26.90;;
70997;SDS011;58663;52.040;4.634;2023-05-07T04:40:36;53.63;;;27.60;;
70997;SDS011;58663;52.040;4.634;2023-05-07T04:43:02;50.35;;;25.75;;
70997;SDS011;58663;52.040;4.634;2023-05-07T04:45:27;54.92;;;28.17;;
70997;SDS011;58663;52.040;4.634;2023-05-07T04:47:52;58.50;;;27.33;;
70997;SDS011;58663;52.040;4.634;2023-05-07T04:50:18;50.65;;;25.88;;
70997;SDS011;58663;52.040;4.634;2023-05-07T04:52:44;51.60;;;27.00;;
70997;SDS011;58663;52.040;4.634;2023-05-07T04:55:10;56.00;;;27.35;;
70997;SDS011;58663;52.040;4.634;2023-05-07T04:57:35;58.17;;;27.80;;
70997;SDS011;58663;52.040;4.634;2023-05-07T05:00:01;52.13;;;27.95;;
70997;SDS011;58663;52.040;4.634;2023-05-07T05:02:26;59.53;;;28.90;;
70997;SDS011;58663;52.040;4.634;2023-05-07T05:04:51;54.08;;;27.92;;
70997;SDS011;58663;52.040;4.634;2023-05-07T05:07:17;58.47;;;28.65;;
70997;SDS011;58663;52.040;4.634;2023-05-07T05:09:42;53.25;;;27.15;;
70997;SDS011;58663;52.040;4.634;2023-05-07T05:12:07;52.72;;;27.70;;
70997;SDS011;58663;52.040;4.634;2023-05-07T05:14:33;53.55;;;26.30;;
70997;SDS011;58663;52.040;4.634;2023-05-07T05:16:58;49.10;;;26.15;;
70997;SDS011;58663;52.040;4.634;2023-05-07T05:19:23;54.20;;;28.30;;
70997;SDS011;58663;52.040;4.634;2023-05-07T05:21:49;51.35;;;26.45;;
70997;SDS011;58663;52.040;4.634;2023-05-07T05:24:14;56.15;;;27.98;;
70997;SDS011;58663;52.040;4.634;2023-05-07T05:26:40;50.10;;;26.42;;
70997;SDS011;58663;52.040;4.634;2023-05-07T05:29:05;52.83;;;28.35;;
70997;SDS011;58663;52.040;4.634;2023-05-07T05:31:31;50.50;;;27.50;;
70997;SDS011;58663;52.040;4.634;2023-05-07T05:33:56;48.53;;;27.20;;
70997;SDS011;58663;52.040;4.634;2023-05-07T05:36:22;51.78;;;27.80;;
70997;SDS011;58663;52.040;4.634;2023-05-07T05:38:47;55.38;;;27.63;;
70997;SDS011;58663;52.040;4.634;2023-05-07T05:41:12;47.92;;;26.52;;
70997;SDS011;58663;52.040;4.634;2023-05-07T05:43:38;45.20;;;26.48;;
70997;SDS011;58663;52.040;4.634;2023-05-07T05:46:03;49.90;;;27.00;;
70997;SDS011;58663;52.040;4.634;2023-05-07T05:48:29;45.20;;;26.38;;
70997;SDS011;58663;52.040;4.634;2023-05-07T05:50:55;46.60;;;26.15;;
70997;SDS011;58663;52.040;4.634;2023-05-07T05:53:20;46.25;;;27.45;;
70997;SDS011;58663;52.040;4.634;2023-05-07T05:55:45;50.53;;;26.58;;
70997;SDS011;58663;52.040;4.634;2023-05-07T05:58:11;46.85;;;27.60;;
70997;SDS011;58663;52.040;4.634;2023-05-07T06:00:36;47.80;;;26.42;;
70997;SDS011;58663;52.040;4.634;2023-05-07T06:03:02;40.78;;;25.98;;
70997;SDS011;58663;52.040;4.634;2023-05-07T06:05:27;44.67;;;25.75;;
70997;SDS011;58663;52.040;4.634;2023-05-07T06:07:53;42.70;;;25.70;;
70997;SDS011;58663;52.040;4.634;2023-05-07T06:10:18;48.05;;;27.45;;
70997;SDS011;58663;52.040;4.634;2023-05-07T06:12:43;44.40;;;26.05;;
70997;SDS011;58663;52.040;4.634;2023-05-07T06:15:09;43.63;;;27.63;;
70997;SDS011;58663;52.040;4.634;2023-05-07T06:17:35;46.72;;;27.88;;
70997;SDS011;58663;52.040;4.634;2023-05-07T06:20:00;37.05;;;24.98;;
70997;SDS011;58663;52.040;4.634;2023-05-07T06:22:25;36.05;;;23.58;;
70997;SDS011;58663;52.040;4.634;2023-05-07T06:24:51;33.58;;;23.55;;
70997;SDS011;58663;52.040;4.634;2023-05-07T06:27:16;38.47;;;24.17;;
70997;SDS011;58663;52.040;4.634;2023-05-07T06:29:42;39.42;;;23.38;;
70997;SDS011;58663;52.040;4.634;2023-05-07T06:32:07;40.13;;;24.23;;
70997;SDS011;58663;52.040;4.634;2023-05-07T06:34:36;42.90;;;25.50;;
70997;SDS011;58663;52.040;4.634;2023-05-07T06:37:02;44.05;;;24.90;;
70997;SDS011;58663;52.040;4.634;2023-05-07T06:39:27;37.40;;;23.80;;
70997;SDS011;58663;52.040;4.634;2023-05-07T06:41:53;38.53;;;24.50;;
70997;SDS011;58663;52.040;4.634;2023-05-07T06:44:18;41.67;;;24.67;;
70997;SDS011;58663;52.040;4.634;2023-05-07T06:46:43;47.10;;;25.58;;
70997;SDS011;58663;52.040;4.634;2023-05-07T06:49:10;42.30;;;24.60;;
70997;SDS011;58663;52.040;4.634;2023-05-07T06:51:35;41.03;;;24.52;;
70997;SDS011;58663;52.040;4.634;2023-05-07T06:54:01;41.17;;;24.38;;
70997;SDS011;58663;52.040;4.634;2023-05-07T06:56:26;34.42;;;22.45;;
70997;SDS011;58663;52.040;4.634;2023-05-07T06:58:51;40.65;;;25.42;;
70997;SDS011;58663;52.040;4.634;2023-05-07T07:01:17;34.00;;;22.92;;
70997;SDS011;58663;52.040;4.634;2023-05-07T07:03:42;38.58;;;24.30;;
70997;SDS011;58663;52.040;4.634;2023-05-07T07:06:07;39.83;;;23.38;;
70997;SDS011;58663;52.040;4.634;2023-05-07T07:08:33;32.70;;;21.70;;
70997;SDS011;58663;52.040;4.634;2023-05-07T07:10:59;31.65;;;21.77;;
70997;SDS011;58663;52.040;4.634;2023-05-07T07:13:24;31.23;;;21.08;;
70997;SDS011;58663;52.040;4.634;2023-05-07T07:15:51;28.38;;;20.15;;
70997;SDS011;58663;52.040;4.634;2023-05-07T07:18:16;32.10;;;20.17;;
70997;SDS011;58663;52.040;4.634;2023-05-07T07:20:42;28.77;;;19.70;;
70997;SDS011;58663;52.040;4.634;2023-05-07T07:23:09;31.33;;;20.25;;
70997;SDS011;58663;52.040;4.634;2023-05-07T07:25:34;29.33;;;19.35;;
70997;SDS011;58663;52.040;4.634;2023-05-07T07:28:00;31.67;;;21.05;;
70997;SDS011;58663;52.040;4.634;2023-05-07T07:30:25;30.20;;;20.35;;
70997;SDS011;58663;52.040;4.634;2023-05-07T07:32:51;30.15;;;20.45;;
70997;SDS011;58663;52.040;4.634;2023-05-07T07:35:17;31.27;;;20.85;;
70997;SDS011;58663;52.040;4.634;2023-05-07T07:37:43;31.02;;;18.90;;
70997;SDS011;58663;52.040;4.634;2023-05-07T07:40:08;28.45;;;19.45;;
70997;SDS011;58663;52.040;4.634;2023-05-07T07:42:34;26.52;;;18.63;;
70997;SDS011;58663;52.040;4.634;2023-05-07T07:44:59;26.13;;;17.50;;
70997;SDS011;58663;52.040;4.634;2023-05-07T07:47:25;26.35;;;18.23;;
70997;SDS011;58663;52.040;4.634;2023-05-07T07:49:50;28.98;;;19.15;;
70997;SDS011;58663;52.040;4.634;2023-05-07T07:52:16;33.17;;;19.15;;
70997;SDS011;58663;52.040;4.634;2023-05-07T07:54:41;26.73;;;18.05;;
70997;SDS011;58663;52.040;4.634;2023-05-07T07:57:06;24.65;;;17.38;;
70997;SDS011;58663;52.040;4.634;2023-05-07T07:59:32;24.30;;;16.00;;
70997;SDS011;58663;52.040;4.634;2023-05-07T08:01:57;24.92;;;17.20;;
70997;SDS011;58663;52.040;4.634;2023-05-07T08:04:22;23.10;;;16.60;;
70997;SDS011;58663;52.040;4.634;2023-05-07T08:06:48;30.02;;;18.10;;
70997;SDS011;58663;52.040;4.634;2023-05-07T08:09:13;25.50;;;16.98;;
70997;SDS011;58663;52.040;4.634;2023-05-07T08:11:39;28.73;;;17.13;;
70997;SDS011;58663;52.040;4.634;2023-05-07T08:14:04;23.90;;;15.95;;
70997;SDS011;58663;52.040;4.634;2023-05-07T08:16:30;23.65;;;15.27;;
70997;SDS011;58663;52.040;4.634;2023-05-07T08:18:55;22.80;;;14.70;;
70997;SDS011;58663;52.040;4.634;2023-05-07T08:21:21;24.20;;;14.95;;
70997;SDS011;58663;52.040;4.634;2023-05-07T08:23:47;16.05;;;12.43;;
70997;SDS011;58663;52.040;4.634;2023-05-07T08:26:12;17.75;;;13.55;;
70997;SDS011;58663;52.040;4.634;2023-05-07T08:28:38;17.90;;;13.90;;
70997;SDS011;58663;52.040;4.634;2023-05-07T08:31:04;19.20;;;13.95;;
70997;SDS011;58663;52.040;4.634;2023-05-07T08:33:30;22.83;;;15.32;;
70997;SDS011;58663;52.040;4.634;2023-05-07T08:35:55;18.25;;;14.32;;
70997;SDS011;58663;52.040;4.634;2023-05-07T08:38:21;19.10;;;12.88;;
70997;SDS011;58663;52.040;4.634;2023-05-07T08:40:46;18.02;;;12.98;;
70997;SDS011;58663;52.040;4.634;2023-05-07T08:43:12;15.52;;;13.00;;
70997;SDS011;58663;52.040;4.634;2023-05-07T08:45:39;25.58;;;13.63;;
70997;SDS011;58663;52.040;4.634;2023-05-07T08:48:06;18.85;;;12.60;;
70997;SDS011;58663;52.040;4.634;2023-05-07T08:50:37;19.98;;;12.32;;
70997;SDS011;58663;52.040;4.634;2023-05-07T08:53:03;18.77;;;11.90;;
70997;SDS011;58663;52.040;4.634;2023-05-07T08:55:29;16.15;;;10.63;;
70997;SDS011;58663;52.040;4.634;2023-05-07T08:57:55;13.68;;;9.95;;
70997;SDS011;58663;52.040;4.634;2023-05-07T09:00:20;15.43;;;10.13;;
70997;SDS011;58663;52.040;4.634;2023-05-07T09:02:45;17.25;;;10.50;;
70997;SDS011;58663;52.040;4.634;2023-05-07T09:05:11;14.93;;;11.32;;
70997;SDS011;58663;52.040;4.634;2023-05-07T09:07:36;16.52;;;12.07;;
70997;SDS011;58663;52.040;4.634;2023-05-07T09:10:02;14.02;;;10.18;;
70997;SDS011;58663;52.040;4.634;2023-05-07T09:12:29;12.02;;;8.88;;
70997;SDS011;58663;52.040;4.634;2023-05-07T09:14:54;11.77;;;9.00;;
70997;SDS011;58663;52.040;4.634;2023-05-07T09:17:20;13.23;;;7.00;;
70997;SDS011;58663;52.040;4.634;2023-05-07T09:19:45;15.32;;;8.02;;
70997;SDS011;58663;52.040;4.634;2023-05-07T09:22:11;15.95;;;11.07;;
70997;SDS011;58663;52.040;4.634;2023-05-07T09:24:36;15.25;;;10.25;;
70997;SDS011;58663;52.040;4.634;2023-05-07T09:27:03;12.85;;;9.68;;
70997;SDS011;58663;52.040;4.634;2023-05-07T09:29:33;15.75;;;10.98;;
70997;SDS011;58663;52.040;4.634;2023-05-07T09:32:06;17.00;;;9.43;;
70997;SDS011;58663;52.040;4.634;2023-05-07T09:34:32;13.93;;;8.95;;
70997;SDS011;58663;52.040;4.634;2023-05-07T09:36:58;13.73;;;8.43;;
70997;SDS011;58663;52.040;4.634;2023-05-07T09:39:25;20.58;;;9.50;;
70997;SDS011;58663;52.040;4.634;2023-05-07T09:41:51;12.60;;;8.52;;
70997;SDS011;58663;52.040;4.634;2023-05-07T09:44:19;13.25;;;8.18;;
70997;SDS011;58663;52.040;4.634;2023-05-07T09:46:45;12.98;;;8.07;;
70997;SDS011;58663;52.040;4.634;2023-05-07T09:49:15;11.77;;;8.57;;
70997;SDS011;58663;52.040;4.634;2023-05-07T09:51:45;11.93;;;8.40;;
70997;SDS011;58663;52.040;4.634;2023-05-07T09:54:13;11.77;;;8.68;;
70997;SDS011;58663;52.040;4.634;2023-05-07T09:56:39;13.45;;;9.60;;
70997;SDS011;58663;52.040;4.634;2023-05-07T09:59:06;13.73;;;9.05;;
70997;SDS011;58663;52.040;4.634;2023-05-07T10:01:32;12.98;;;8.85;;
70997;SDS011;58663;52.040;4.634;2023-05-07T10:03:58;14.05;;;8.73;;
70997;SDS011;58663;52.040;4.634;2023-05-07T10:06:24;11.75;;;8.00;;
70997;SDS011;58663;52.040;4.634;2023-05-07T10:08:50;10.68;;;7.88;;
70997;SDS011;58663;52.040;4.634;2023-05-07T10:11:17;11.65;;;8.35;;
70997;SDS011;58663;52.040;4.634;2023-05-07T10:13:42;13.32;;;7.75;;
70997;SDS011;58663;52.040;4.634;2023-05-07T10:16:08;14.50;;;7.95;;
70997;SDS011;58663;52.040;4.634;2023-05-07T10:18:33;12.27;;;6.97;;
70997;SDS011;58663;52.040;4.634;2023-05-07T10:21:04;11.70;;;7.60;;
70997;SDS011;58663;52.040;4.634;2023-05-07T10:23:33;12.90;;;7.50;;
70997;SDS011;58663;52.040;4.634;2023-05-07T10:25:59;10.45;;;6.68;;
70997;SDS011;58663;52.040;4.634;2023-05-07T10:28:30;9.95;;;6.90;;
70997;SDS011;58663;52.040;4.634;2023-05-07T10:33:41;10.00;;;6.85;;
70997;SDS011;58663;52.040;4.634;2023-05-07T10:36:07;13.27;;;7.60;;
70997;SDS011;58663;52.040;4.634;2023-05-07T10:38:33;13.32;;;7.20;;
70997;SDS011;58663;52.040;4.634;2023-05-07T10:40:58;15.75;;;8.00;;
70997;SDS011;58663;52.040;4.634;2023-05-07T10:43:24;12.80;;;6.75;;
70997;SDS011;58663;52.040;4.634;2023-05-07T10:51:28;10.82;;;6.38;;
70997;SDS011;58663;52.040;4.634;2023-05-07T10:56:39;8.98;;;6.18;;
70997;SDS011;58663;52.040;4.634;2023-05-07T11:01:58;11.93;;;6.00;;
70997;SDS011;58663;52.040;4.634;2023-05-07T11:04:28;12.00;;;5.28;;
70997;SDS011;58663;52.040;4.634;2023-05-07T11:15:05;8.45;;;5.95;;
70997;SDS011;58663;52.040;4.634;2023-05-07T11:17:31;14.80;;;6.32;;
70997;SDS011;58663;52.040;4.634;2023-05-07T11:19:59;11.07;;;5.57;;
70997;SDS011;58663;52.040;4.634;2023-05-07T11:24:59;11.15;;;5.60;;
70997;SDS011;58663;52.040;4.634;2023-05-07T11:27:25;8.50;;;5.32;;
70997;SDS011;58663;52.040;4.634;2023-05-07T11:29:51;9.55;;;5.18;;
70997;SDS011;58663;52.040;4.634;2023-05-07T11:32:22;13.32;;;6.05;;
70997;SDS011;58663;52.040;4.634;2023-05-07T11:34:51;7.95;;;5.80;;
70997;SDS011;58663;52.040;4.634;2023-05-07T11:37:17;13.10;;;6.40;;
70997;SDS011;58663;52.040;4.634;2023-05-07T11:39:43;11.57;;;5.32;;
70997;SDS011;58663;52.040;4.634;2023-05-07T11:44:56;8.10;;;5.43;;
70997;SDS011;58663;52.040;4.634;2023-05-07T11:47:22;8.60;;;5.43;;
70997;SDS011;58663;52.040;4.634;2023-05-07T11:49:48;8.30;;;5.38;;
70997;SDS011;58663;52.040;4.634;2023-05-07T11:52:14;10.05;;;5.93;;
70997;SDS011;58663;52.040;4.634;2023-05-07T11:54:40;10.75;;;5.75;;
70997;SDS011;58663;52.040;4.634;2023-05-07T11:57:05;13.50;;;5.25;;
70997;SDS011;58663;52.040;4.634;2023-05-07T11:59:41;9.50;;;5.63;;
70997;SDS011;58663;52.040;4.634;2023-05-07T12:02:07;8.68;;;5.15;;
70997;SDS011;58663;52.040;4.634;2023-05-07T12:04:33;10.85;;;5.50;;
70997;SDS011;58663;52.040;4.634;2023-05-07T12:06:58;9.70;;;5.75;;
70997;SDS011;58663;52.040;4.634;2023-05-07T12:09:23;9.43;;;5.65;;
70997;SDS011;58663;52.040;4.634;2023-05-07T12:11:49;8.98;;;5.88;;
70997;SDS011;58663;52.040;4.634;2023-05-07T12:14:16;10.38;;;5.78;;
70997;SDS011;58663;52.040;4.634;2023-05-07T12:16:42;8.75;;;6.68;;
70997;SDS011;58663;52.040;4.634;2023-05-07T12:19:07;10.13;;;5.43;;
70997;SDS011;58663;52.040;4.634;2023-05-07T12:21:37;11.57;;;6.20;;
70997;SDS011;58663;52.040;4.634;2023-05-07T12:24:02;12.00;;;6.20;;
70997;SDS011;58663;52.040;4.634;2023-05-07T12:26:28;10.55;;;6.85;;
70997;SDS011;58663;52.040;4.634;2023-05-07T12:28:53;11.55;;;6.70;;
70997;SDS011;58663;52.040;4.634;2023-05-07T12:31:19;7.97;;;6.70;;
70997;SDS011;58663;52.040;4.634;2023-05-07T12:33:45;12.23;;;7.22;;
70997;SDS011;58663;52.040;4.634;2023-05-07T12:36:11;11.40;;;7.50;;
70997;SDS011;58663;52.040;4.634;2023-05-07T12:38:38;11.25;;;7.53;;
70997;SDS011;58663;52.040;4.634;2023-05-07T12:41:04;13.10;;;6.93;;
70997;SDS011;58663;52.040;4.634;2023-05-07T12:43:30;11.57;;;8.25;;
70997;SDS011;58663;52.040;4.634;2023-05-07T12:46:00;15.27;;;10.20;;
70997;SDS011;58663;52.040;4.634;2023-05-07T12:48:26;17.67;;;11.10;;
70997;SDS011;58663;52.040;4.634;2023-05-07T12:50:59;16.92;;;10.85;;
70997;SDS011;58663;52.040;4.634;2023-05-07T12:53:26;13.40;;;10.80;;
70997;SDS011;58663;52.040;4.634;2023-05-07T12:55:53;13.25;;;11.05;;
70997;SDS011;58663;52.040;4.634;2023-05-07T12:58:20;15.02;;;10.85;;
70997;SDS011;58663;52.040;4.634;2023-05-07T13:00:50;14.80;;;11.07;;
70997;SDS011;58663;52.040;4.634;2023-05-07T13:03:29;15.85;;;12.15;;
70997;SDS011;58663;52.040;4.634;2023-05-07T13:06:02;16.33;;;11.43;;
70997;SDS011;58663;52.040;4.634;2023-05-07T13:11:01;18.92;;;13.10;;
70997;SDS011;58663;52.040;4.634;2023-05-07T13:13:29;21.60;;;13.52;;
70997;SDS011;58663;52.040;4.634;2023-05-07T13:15:57;24.70;;;11.90;;
70997;SDS011;58663;52.040;4.634;2023-05-07T13:18:24;16.70;;;11.43;;
70997;SDS011;58663;52.040;4.634;2023-05-07T13:20:50;13.85;;;10.00;;
70997;SDS011;58663;52.040;4.634;2023-05-07T13:23:16;14.77;;;11.52;;
70997;SDS011;58663;52.040;4.634;2023-05-07T13:25:41;20.55;;;13.75;;
70997;SDS011;58663;52.040;4.634;2023-05-07T13:28:07;21.90;;;14.88;;
70997;SDS011;58663;52.040;4.634;2023-05-07T13:30:32;19.55;;;13.38;;
70997;SDS011;58663;52.040;4.634;2023-05-07T13:32:57;19.83;;;13.02;;
70997;SDS011;58663;52.040;4.634;2023-05-07T13:35:23;19.17;;;13.40;;
70997;SDS011;58663;52.040;4.634;2023-05-07T13:37:48;19.80;;;13.35;;
70997;SDS011;58663;52.040;4.634;2023-05-07T13:40:14;20.95;;;13.82;;
70997;SDS011;58663;52.040;4.634;2023-05-07T13:42:40;22.48;;;13.85;;
70997;SDS011;58663;52.040;4.634;2023-05-07T13:45:06;21.88;;;13.63;;
70997;SDS011;58663;52.040;4.634;2023-05-07T13:47:32;19.38;;;13.63;;
70997;SDS011;58663;52.040;4.634;2023-05-07T13:49:57;21.38;;;14.35;;
70997;SDS011;58663;52.040;4.634;2023-05-07T13:52:23;25.27;;;15.02;;
70997;SDS011;58663;52.040;4.634;2023-05-07T13:54:48;24.83;;;15.93;;
70997;SDS011;58663;52.040;4.634;2023-05-07T13:57:13;23.90;;;15.48;;
70997;SDS011;58663;52.040;4.634;2023-05-07T13:59:40;21.65;;;15.77;;
70997;SDS011;58663;52.040;4.634;2023-05-07T14:02:05;21.98;;;15.23;;
70997;SDS011;58663;52.040;4.634;2023-05-07T14:04:31;22.67;;;16.73;;
70997;SDS011;58663;52.040;4.634;2023-05-07T14:06:56;25.73;;;17.27;;
70997;SDS011;58663;52.040;4.634;2023-05-07T14:09:22;21.67;;;15.52;;
70997;SDS011;58663;52.040;4.634;2023-05-07T14:11:47;23.48;;;16.63;;
70997;SDS011;58663;52.040;4.634;2023-05-07T14:14:16;22.02;;;16.42;;
70997;SDS011;58663;52.040;4.634;2023-05-07T14:16:44;22.70;;;16.52;;
70997;SDS011;58663;52.040;4.634;2023-05-07T14:19:10;22.38;;;16.38;;
70997;SDS011;58663;52.040;4.634;2023-05-07T14:21:39;25.55;;;17.35;;
70997;SDS011;58663;52.040;4.634;2023-05-07T14:24:06;29.70;;;18.25;;
70997;SDS011;58663;52.040;4.634;2023-05-07T14:26:32;35.75;;;18.30;;
70997;SDS011;58663;52.040;4.634;2023-05-07T14:28:58;32.60;;;19.45;;
70997;SDS011;58663;52.040;4.634;2023-05-07T14:31:23;34.10;;;19.75;;
70997;SDS011;58663;52.040;4.634;2023-05-07T14:33:49;30.45;;;20.67;;
70997;SDS011;58663;52.040;4.634;2023-05-07T14:36:15;27.58;;;19.23;;
70997;SDS011;58663;52.040;4.634;2023-05-07T14:38:42;28.35;;;20.05;;
70997;SDS011;58663;52.040;4.634;2023-05-07T14:41:07;29.98;;;21.10;;
70997;SDS011;58663;52.040;4.634;2023-05-07T14:43:33;32.17;;;21.75;;
70997;SDS011;58663;52.040;4.634;2023-05-07T14:45:58;30.58;;;21.88;;
70997;SDS011;58663;52.040;4.634;2023-05-07T14:48:23;31.05;;;20.77;;